Time;durP1;ratioP1;P1;durP2;ratioP2;P2;SDS_P1;SDS_P2;PMS_P1;PMS_P2;Temp;Humidity;BMP_temperature;BMP_pressure;BME280_temperature;BME280_humidity;BME280_pressure;Samples;Min_cycle;Max_cycle;Signal;HPM_P1;HPM_P2
2023/12/04 00:01:27;;;;;;;25.53;7.60;;;;;;;-3.22;100.00;101397.47;6036321;28;20034;-75
2023/12/04 00:04:23;;;;;;;18.13;7.07;;;;;;;-3.21;100.00;101396.59;6029957;28;20038;-74
2023/12/04 00:07:18;;;;;;;24.53;7.60;;;;;;;-3.26;100.00;101395.88;6034646;28;20034;-73
2023/12/04 00:10:13;;;;;;;20.20;8.63;;;;;;;-3.29;100.00;101388.19;6027416;28;20030;-75
2023/12/04 00:13:09;;;;;;;27.70;10.13;;;;;;;-3.29;100.00;101395.94;6022692;28;20025;-75
2023/12/04 00:16:05;;;;;;;25.03;9.90;;;;;;;-3.26;100.00;101380.31;6032849;28;20081;-73
2023/12/04 00:19:01;;;;;;;21.58;8.57;;;;;;;-3.17;100.00;101378.31;6034862;28;20560;-74
2023/12/04 00:21:56;;;;;;;24.60;8.10;;;;;;;-3.15;100.00;101368.72;6048796;28;20124;-75
2023/12/04 00:24:51;;;;;;;24.23;7.77;;;;;;;-3.03;100.00;101364.94;6038075;28;20037;-74
2023/12/04 00:27:47;;;;;;;23.67;7.83;;;;;;;-3.01;100.00;101364.00;6040037;28;20105;-75
2023/12/04 00:30:42;;;;;;;19.13;8.03;;;;;;;-3.06;100.00;101350.31;6039153;28;20034;-73
2023/12/04 00:33:37;;;;;;;23.20;8.53;;;;;;;-3.03;100.00;101367.53;6037412;28;20100;-75
2023/12/04 00:36:32;;;;;;;27.77;9.43;;;;;;;-3.07;100.00;101360.72;6032415;28;20026;-74
2023/12/04 00:39:28;;;;;;;23.03;8.73;;;;;;;-3.05;100.00;101361.53;6038551;28;20555;-74
2023/12/04 00:42:23;;;;;;;22.90;7.73;;;;;;;-3.01;100.00;101356.22;6038813;28;20038;-74
2023/12/04 00:45:18;;;;;;;20.60;7.10;;;;;;;-2.98;100.00;101355.28;6041744;28;20030;-75
2023/12/04 00:48:14;;;;;;;24.57;8.13;;;;;;;-2.91;100.00;101350.78;6037953;28;20059;-75
2023/12/04 00:51:09;;;;;;;19.87;6.50;;;;;;;-2.84;100.00;101341.91;6045173;28;20018;-75
2023/12/04 00:54:04;;;;;;;19.43;7.17;;;;;;;-2.62;100.00;101348.97;6037555;28;20380;-75
2023/12/04 00:56:59;;;;;;;18.83;7.50;;;;;;;-2.45;100.00;101354.47;6036772;28;20382;-74
2023/12/04 00:59:55;;;;;;;13.87;5.30;;;;;;;-2.34;100.00;101335.13;6046393;28;20502;-75
2023/12/04 01:02:51;;;;;;;21.70;6.47;;;;;;;-2.28;100.00;101333.16;6036402;28;20057;-74
2023/12/04 01:05:47;;;;;;;15.32;5.82;;;;;;;-2.15;100.00;101329.31;6024328;28;20050;-74
2023/12/04 01:08:42;;;;;;;19.70;6.57;;;;;;;-2.03;100.00;101330.63;6042250;28;20041;-74
2023/12/04 01:11:37;;;;;;;17.77;8.60;;;;;;;-2.07;100.00;101308.25;6035756;28;20066;-75
2023/12/04 01:14:33;;;;;;;19.58;7.05;;;;;;;-2.00;100.00;101309.72;6038441;28;20061;-75
2023/12/04 01:17:28;;;;;;;15.90;5.33;;;;;;;-1.94;100.00;101304.34;6032615;28;20085;-73
2023/12/04 01:20:23;;;;;;;16.70;5.63;;;;;;;-1.92;100.00;101307.72;6035379;28;20282;-73
2023/12/04 01:23:19;;;;;;;16.03;6.13;;;;;;;-1.96;100.00;101298.34;6044992;28;20261;-74
2023/12/04 01:26:14;;;;;;;23.60;6.20;;;;;;;-1.90;100.00;101287.72;6036879;28;20273;-76
2023/12/04 01:29:09;;;;;;;19.03;6.63;;;;;;;-1.83;100.00;101294.41;6031928;28;20035;-73
2023/12/04 01:32:05;;;;;;;16.77;6.33;;;;;;;-1.86;100.00;101289.31;6040198;28;20025;-75
2023/12/04 01:35:02;;;;;;;17.58;6.15;;;;;;;-1.82;100.00;101277.91;6037960;28;20038;-74
2023/12/04 01:37:57;;;;;;;22.23;6.50;;;;;;;-1.79;100.00;101290.78;6039398;28;20116;-74
2023/12/04 01:40:52;;;;;;;15.03;5.60;;;;;;;-1.82;100.00;101275.31;6036716;28;20575;-77
2023/12/04 01:43:48;;;;;;;18.93;6.23;;;;;;;-1.73;100.00;101275.00;6036730;28;20038;-73
2023/12/04 01:46:43;;;;;;;15.70;5.87;;;;;;;-1.71;100.00;101273.16;6034808;28;20799;-74
2023/12/04 01:49:38;;;;;;;16.58;6.78;;;;;;;-1.59;100.00;101277.09;6045333;28;20034;-75
2023/12/04 01:52:35;;;;;;;17.40;7.80;;;;;;;-1.57;100.00;101270.94;6040151;28;20033;-75
2023/12/04 01:55:32;;;;;;;19.17;7.40;;;;;;;-1.64;100.00;101264.28;6042879;28;20038;-75
2023/12/04 01:58:28;;;;;;;16.90;6.10;;;;;;;-1.61;100.00;101266.75;6038298;28;20116;-76
2023/12/04 02:01:23;;;;;;;17.67;6.80;;;;;;;-1.54;100.00;101259.56;6038688;28;20034;-75
2023/12/04 02:04:19;;;;;;;12.35;5.18;;;;;;;-1.41;100.00;101248.66;6033646;28;20320;-74
2023/12/04 02:07:14;;;;;;;18.60;6.90;;;;;;;-1.30;100.00;101243.91;6040868;28;20167;-74
2023/12/04 02:10:09;;;;;;;12.50;5.10;;;;;;;-1.18;100.00;101246.94;6029863;28;20046;-74
2023/12/04 02:13:05;;;;;;;19.43;5.60;;;;;;;-1.12;100.00;101246.72;6022939;28;20502;-75
2023/12/04 02:16:05;;;;;;;15.23;5.88;;;;;;;-1.09;100.00;101239.66;6029221;28;20062;-74
2023/12/04 02:19:01;;;;;;;10.10;4.10;;;;;;;-1.08;100.00;101232.66;6025220;28;20558;-73
2023/12/04 02:21:56;;;;;;;13.63;4.53;;;;;;;-1.05;100.00;101229.94;6035018;28;20037;-74
2023/12/04 02:24:51;;;;;;;11.43;4.37;;;;;;;-1.04;100.00;101229.06;6042527;28;20783;-75
2023/12/04 02:27:52;;;;;;;9.27;4.20;;;;;;;-1.05;100.00;101216.94;6028433;28;20608;-73
2023/12/04 02:30:48;;;;;;;12.68;4.28;;;;;;;-1.12;100.00;101212.91;6037721;28;20054;-74
2023/12/04 02:33:45;;;;;;;8.80;3.22;;;;;;;-1.12;100.00;101216.34;6038851;28;20053;-73
2023/12/04 02:36:40;;;;;;;15.35;4.78;;;;;;;-1.24;100.00;101206.41;6036908;28;20520;-73
2023/12/04 02:39:36;;;;;;;8.07;3.28;;;;;;;-1.33;100.00;101198.94;6026398;28;20053;-73
2023/12/04 02:42:32;;;;;;;11.55;4.18;;;;;;;-1.41;100.00;101198.41;6037649;28;20033;-72
2023/12/04 02:45:27;;;;;;;12.13;4.90;;;;;;;-1.47;100.00;101196.06;6038233;28;20116;-74
2023/12/04 02:48:22;;;;;;;8.17;3.33;;;;;;;-1.48;100.00;101186.53;6037587;28;20034;-73
2023/12/04 02:51:18;;;;;;;13.90;5.67;;;;;;;-1.44;100.00;101183.75;6035942;28;20032;-73
2023/12/04 02:54:13;;;;;;;8.17;3.23;;;;;;;-1.41;100.00;101188.84;6033557;28;20397;-74
2023/12/04 02:57:08;;;;;;;7.97;3.80;;;;;;;-1.43;100.00;101172.47;6026515;28;20034;-74
2023/12/04 03:00:06;;;;;;;12.47;4.00;;;;;;;-1.51;100.00;101161.50;6036997;28;20036;-74
2023/12/04 03:03:01;;;;;;;11.30;4.35;;;;;;;-1.44;100.00;101167.34;6036473;28;20065;-73
2023/12/04 03:05:56;;;;;;;14.43;4.83;;;;;;;-1.51;100.00;101160.66;6032528;28;20037;-74
2023/12/04 03:08:52;;;;;;;13.97;5.70;;;;;;;-1.50;100.00;101147.63;6042580;28;20107;-74
2023/12/04 03:11:47;;;;;;;12.33;4.83;;;;;;;-1.43;100.00;101156.88;6038649;28;20030;-75
2023/12/04 03:14:42;;;;;;;13.98;4.45;;;;;;;-1.52;100.00;101141.59;6035822;28;20127;-73
2023/12/04 03:17:38;;;;;;;14.20;5.63;;;;;;;-1.64;100.00;101139.50;6037364;28;20037;-74
2023/12/04 03:20:33;;;;;;;11.98;4.28;;;;;;;-1.78;100.00;101135.72;6035531;28;20030;-74
2023/12/04 03:23:29;;;;;;;16.07;5.20;;;;;;;-1.80;100.00;101133.19;6043064;28;20033;-73
2023/12/04 03:26:25;;;;;;;19.43;7.97;;;;;;;-1.87;100.00;101127.38;6034474;28;20034;-74
2023/12/04 03:29:20;;;;;;;20.88;6.70;;;;;;;-1.85;100.00;101135.94;6036569;28;20038;-74
2023/12/04 03:32:15;;;;;;;19.55;7.57;;;;;;;-1.94;100.00;101133.72;6044924;28;20037;-73
2023/12/04 03:35:11;;;;;;;14.83;6.67;;;;;;;-1.93;100.00;101134.56;6030222;28;20072;-73
2023/12/04 03:38:06;;;;;;;25.50;7.83;;;;;;;-1.91;100.00;101131.00;6039623;28;20030;-74
2023/12/04 03:41:01;;;;;;;22.30;7.70;;;;;;;-1.96;100.00;101126.88;6032867;28;20030;-74
2023/12/04 03:43:57;;;;;;;16.10;6.13;;;;;;;-1.87;100.00;101131.72;6027174;28;20045;-74
2023/12/04 03:46:52;;;;;;;21.93;7.40;;;;;;;-1.84;100.00;101129.84;6031610;28;20092;-74
2023/12/04 03:49:47;;;;;;;17.47;5.97;;;;;;;-1.85;100.00;101114.34;6044161;28;20397;-73
2023/12/04 03:52:43;;;;;;;13.73;5.67;;;;;;;-1.77;100.00;101099.28;6034514;28;20045;-74
2023/12/04 03:55:38;;;;;;;18.27;6.53;;;;;;;-1.75;100.00;101105.28;6038072;28;20117;-74
2023/12/04 03:58:33;;;;;;;17.60;6.70;;;;;;;-1.76;100.00;101093.16;6038238;28;20448;-73
2023/12/04 04:01:28;;;;;;;22.63;6.33;;;;;;;-1.78;100.00;101094.13;6043175;28;20642;-74
2023/12/04 04:04:24;;;;;;;19.47;5.47;;;;;;;-1.78;100.00;101100.19;6039495;28;20073;-74
2023/12/04 04:07:19;;;;;;;18.97;7.30;;;;;;;-1.85;100.00;101083.16;6033241;28;20037;-74
2023/12/04 04:10:15;;;;;;;19.38;5.88;;;;;;;-1.83;100.00;101079.59;6040652;28;20041;-76
2023/12/04 04:13:10;;;;;;;17.47;5.77;;;;;;;-1.78;100.00;101084.59;6034142;28;20046;-73
2023/12/04 04:16:06;;;;;;;14.50;5.53;;;;;;;-1.87;100.00;101071.94;6038481;28;20030;-74
2023/12/04 04:19:01;;;;;;;18.15;5.72;;;;;;;-1.83;100.00;101076.13;6041627;28;20344;-73
2023/12/04 04:21:56;;;;;;;18.37;6.23;;;;;;;-1.90;100.00;101065.13;6042252;28;20462;-74
2023/12/04 04:24:52;;;;;;;14.80;6.10;;;;;;;-2.00;100.00;101052.53;6032326;28;20049;-73
2023/12/04 04:27:47;;;;;;;17.27;6.87;;;;;;;-1.98;100.00;101041.19;6041373;28;20496;-73
2023/12/04 04:30:43;;;;;;;9.60;3.93;;;;;;;-2.01;100.00;101046.50;6040264;28;20324;-74
2023/12/04 04:33:38;;;;;;;22.00;7.23;;;;;;;-1.98;100.00;101050.72;6036622;28;20046;-74
2023/12/04 04:36:35;;;;;;;17.10;6.07;;;;;;;-2.02;100.00;101038.78;6042544;28;20295;-73
2023/12/04 04:39:30;;;;;;;21.90;6.35;;;;;;;-2.06;100.00;101035.44;6028765;28;20788;-73
2023/12/04 04:42:26;;;;;;;17.53;6.70;;;;;;;-2.08;100.00;101028.59;6043037;28;20080;-73
2023/12/04 04:45:21;;;;;;;21.17;6.33;;;;;;;-1.98;100.00;101035.97;6042216;28;20042;-74
2023/12/04 04:48:16;;;;;;;16.80;5.63;;;;;;;-1.98;100.00;101035.97;6036589;28;20073;-73
2023/12/04 04:51:11;;;;;;;19.93;7.37;;;;;;;-1.97;100.00;101019.50;6035138;28;20038;-74
2023/12/04 04:54:07;;;;;;;15.60;5.20;;;;;;;-1.94;100.00;101023.72;6042415;28;20512;-75
2023/12/04 04:57:02;;;;;;;18.93;6.27;;;;;;;-1.91;100.00;101031.41;6036941;28;20034;-74
2023/12/04 04:59:57;;;;;;;12.57;4.47;;;;;;;-1.90;100.00;101022.69;6038952;28;20466;-74
2023/12/04 05:02:53;;;;;;;13.67;4.50;;;;;;;-1.87;100.00;101022.56;6034364;28;20034;-74
2023/12/04 05:05:48;;;;;;;21.30;5.20;;;;;;;-1.89;100.00;101019.19;6039827;28;20018;-74
2023/12/04 05:08:43;;;;;;;15.85;5.85;;;;;;;-1.87;100.00;101012.19;6032492;28;20034;-74
2023/12/04 05:11:39;;;;;;;17.57;5.43;;;;;;;-1.79;100.00;101017.91;6039241;28;20153;-76
2023/12/04 05:14:34;;;;;;;14.27;5.17;;;;;;;-1.78;100.00;101014.44;6036697;28;20022;-75
2023/12/04 05:17:30;;;;;;;15.67;4.40;;;;;;;-1.78;100.00;101017.03;6026780;28;20038;-73
2023/12/04 05:20:25;;;;;;;13.38;4.70;;;;;;;-1.78;100.00;101024.81;6040598;28;20029;-74
2023/12/04 05:23:20;;;;;;;13.20;5.37;;;;;;;-1.87;100.00;101012.19;6039665;28;20034;-74
2023/12/04 05:26:16;;;;;;;16.47;5.63;;;;;;;-1.89;100.00;101008.81;6036681;28;20323;-74
2023/12/04 05:29:11;;;;;;;11.73;4.27;;;;;;;-1.88;100.00;101005.31;6040735;28;20425;-73
2023/12/04 05:32:06;;;;;;;15.87;5.20;;;;;;;-1.93;100.00;101004.66;6036075;28;20080;-74
2023/12/04 05:35:02;;;;;;;15.13;5.73;;;;;;;-1.92;100.00;101004.56;6030304;28;20075;-74
2023/12/04 05:37:57;;;;;;;17.15;5.65;;;;;;;-1.88;100.00;101000.97;6040666;28;20669;-73
2023/12/04 05:40:54;;;;;;;14.30;6.00;;;;;;;-1.92;100.00;100989.00;6028223;28;20030;-73
2023/12/04 05:43:49;;;;;;;16.30;5.80;;;;;;;-1.87;100.00;100986.19;6029588;28;20034;-73
2023/12/04 05:46:45;;;;;;;16.63;5.90;;;;;;;-1.84;100.00;100986.06;6034873;28;20042;-73
2023/12/04 05:49:40;;;;;;;15.20;5.93;;;;;;;-1.86;100.00;100985.31;6042102;28;20038;-73
2023/12/04 05:52:36;;;;;;;15.38;5.97;;;;;;;-1.84;100.00;100991.28;6031943;28;20044;-75
2023/12/04 05:55:31;;;;;;;11.40;4.93;;;;;;;-1.84;100.00;100992.13;6033498;28;20026;-74
2023/12/04 05:58:26;;;;;;;15.93;5.20;;;;;;;-1.90;100.00;100991.50;6040309;28;20104;-75
2023/12/04 06:01:21;;;;;;;17.00;6.30;;;;;;;-1.88;100.00;100989.72;6027220;28;20371;-74
2023/12/04 06:04:17;;;;;;;13.97;5.57;;;;;;;-1.78;100.00;100997.97;6023304;28;20290;-74
2023/12/04 06:07:12;;;;;;;16.33;5.60;;;;;;;-1.84;100.00;100991.28;6024635;28;20064;-73
2023/12/04 06:10:08;;;;;;;14.70;6.23;;;;;;;-1.80;100.00;100982.47;6032032;28;20461;-75
2023/12/04 06:13:03;;;;;;;16.98;5.63;;;;;;;-1.75;100.00;100988.31;6035967;28;20061;-74
2023/12/04 06:15:59;;;;;;;15.55;5.30;;;;;;;-1.77;100.00;100977.16;6032576;28;20062;-74
2023/12/04 06:18:54;;;;;;;16.73;5.95;;;;;;;-1.80;100.00;100977.28;6030806;28;20092;-74
2023/12/04 06:21:50;;;;;;;16.20;5.07;;;;;;;-1.83;100.00;100974.78;6034533;28;20040;-73
2023/12/04 06:24:45;;;;;;;11.80;4.82;;;;;;;-1.79;100.00;100952.94;6034086;28;20036;-74
2023/12/04 06:27:41;;;;;;;19.33;7.25;;;;;;;-1.81;100.00;100954.78;6036588;28;20521;-74
2023/12/04 06:30:37;;;;;;;16.75;5.85;;;;;;;-1.79;100.00;100950.34;6034090;28;20389;-74
2023/12/04 06:33:32;;;;;;;15.85;5.55;;;;;;;-1.79;100.00;100963.34;6036709;28;20029;-73
2023/12/04 06:36:29;;;;;;;19.08;6.80;;;;;;;-1.78;100.00;100954.66;6029711;28;20034;-74
2023/12/04 06:39:25;;;;;;;15.85;6.30;;;;;;;-1.77;100.00;100958.09;6028315;28;20077;-75
2023/12/04 06:42:20;;;;;;;21.92;6.63;;;;;;;-1.83;100.00;100961.78;6037091;28;20034;-74
2023/12/04 06:45:16;;;;;;;29.20;11.02;;;;;;;-1.78;100.00;100970.25;6032547;28;20040;-75
2023/12/04 06:48:15;;;;;;;55.92;18.50;;;;;;;-1.81;100.00;100962.56;6040811;28;20032;-74
2023/12/04 06:51:10;;;;;;;38.67;10.35;;;;;;;-1.77;100.00;100952.91;6033287;28;20120;-75
2023/12/04 06:54:05;;;;;;;32.00;10.80;;;;;;;-1.72;100.00;100958.75;6030666;28;20088;-74
2023/12/04 06:57:01;;;;;;;46.60;15.18;;;;;;;-1.76;100.00;100952.84;6032839;28;20034;-73
2023/12/04 06:59:56;;;;;;;33.28;10.50;;;;;;;-1.77;100.00;100958.97;6029737;28;20070;-73
2023/12/04 07:02:52;;;;;;;21.47;6.60;;;;;;;-1.73;100.00;100957.91;6033633;28;20449;-75
2023/12/04 07:05:47;;;;;;;17.23;6.10;;;;;;;-1.72;100.00;100956.16;6033270;28;20041;-73
2023/12/04 07:08:43;;;;;;;16.43;5.07;;;;;;;-1.63;100.00;100964.41;6036547;28;20033;-73
2023/12/04 07:11:38;;;;;;;16.83;5.40;;;;;;;-1.58;100.00;100959.03;6032971;28;20541;-74
2023/12/04 07:14:33;;;;;;;12.93;5.03;;;;;;;-1.61;100.00;100952.22;6036403;28;20053;-74
2023/12/04 07:17:29;;;;;;;13.83;4.97;;;;;;;-1.54;100.00;100958.84;6033695;28;20454;-73
2023/12/04 07:20:24;;;;;;;12.53;4.63;;;;;;;-1.51;100.00;100969.13;6031194;28;20041;-73
2023/12/04 07:23:19;;;;;;;13.70;5.10;;;;;;;-1.50;100.00;100965.63;6031529;28;20029;-75
2023/12/04 07:26:15;;;;;;;12.30;4.63;;;;;;;-1.51;100.00;100955.28;6033894;28;20026;-75
2023/12/04 07:29:10;;;;;;;11.27;4.83;;;;;;;-1.43;100.00;100971.38;6036812;28;20474;-73
2023/12/04 07:32:06;;;;;;;14.57;6.18;;;;;;;-1.41;100.00;100970.41;6035626;28;20034;-74
2023/12/04 07:35:01;;;;;;;16.15;5.80;;;;;;;-1.43;100.00;100972.25;6039891;28;20030;-73
2023/12/04 07:37:57;;;;;;;13.87;4.07;;;;;;;-1.42;100.00;100971.34;6036989;28;20065;-73
2023/12/04 07:40:52;;;;;;;10.17;4.10;;;;;;;-1.38;100.00;100982.44;6040639;28;20060;-75
2023/12/04 07:43:47;;;;;;;12.33;3.53;;;;;;;-1.36;100.00;100984.06;6037426;28;20044;-74
2023/12/04 07:46:43;;;;;;;11.70;4.63;;;;;;;-1.35;100.00;100975.38;6040286;28;20366;-73
2023/12/04 07:49:38;;;;;;;13.63;4.90;;;;;;;-1.40;100.00;100969.53;6030116;28;20520;-74
2023/12/04 07:52:33;;;;;;;14.57;5.33;;;;;;;-1.37;100.00;100966.78;6039266;28;20030;-73
2023/12/04 07:55:28;;;;;;;16.93;5.73;;;;;;;-1.36;100.00;100972.84;6039979;28;20045;-73
2023/12/04 07:58:24;;;;;;;15.67;5.23;;;;;;;-1.27;100.00;100977.63;6029248;28;20034;-73
2023/12/04 08:01:19;;;;;;;17.63;4.60;;;;;;;-1.23;100.00;100974.00;6041020;28;20114;-73
2023/12/04 08:04:14;;;;;;;12.82;4.90;;;;;;;-1.27;100.00;100965.47;6043917;28;20034;-73
2023/12/04 08:07:11;;;;;;;17.47;4.90;;;;;;;-1.25;100.00;100962.84;6032166;28;20030;-73
2023/12/04 08:10:07;;;;;;;14.68;5.32;;;;;;;-1.16;100.00;100965.03;6040777;28;20037;-74
2023/12/04 08:13:02;;;;;;;23.90;8.38;;;;;;;-1.13;100.00;100948.44;6023093;28;20027;-74
2023/12/04 08:15:57;;;;;;;23.93;6.80;;;;;;;-0.97;100.00;100965.06;6030376;28;20110;-73
2023/12/04 08:18:52;;;;;;;14.93;5.47;;;;;;;-0.81;100.00;100959.13;6029673;28;20068;-75
2023/12/04 08:21:48;;;;;;;16.60;6.30;;;;;;;-0.72;100.00;100950.91;6033609;28;20037;-73
2023/12/04 08:24:43;;;;;;;14.63;4.73;;;;;;;-0.55;100.00;100934.53;6041259;28;20084;-74
2023/12/04 08:27:38;;;;;;;16.50;5.30;;;;;;;-0.39;100.00;100953.72;6035160;28;20393;-73
2023/12/04 08:30:34;;;;;;;16.50;5.63;;;;;;;-0.32;100.00;100942.09;6036684;28;20031;-73
2023/12/04 08:33:29;;;;;;;10.47;4.33;;;;;;;-0.24;100.00;100945.19;6035489;28;20473;-73
2023/12/04 08:36:24;;;;;;;23.13;8.60;;;;;;;-0.17;100.00;100949.22;6035965;28;20065;-74
2023/12/04 08:39:19;;;;;;;9.10;4.23;;;;;;;-0.13;100.00;100935.09;6029969;28;20041;-73
2023/12/04 08:42:15;;;;;;;11.10;3.70;;;;;;;-0.12;100.00;100936.81;6035790;28;20046;-73
2023/12/04 08:45:11;;;;;;;9.33;3.63;;;;;;;-0.05;100.00;100934.72;6040282;28;20297;-73
2023/12/04 08:48:06;;;;;;;9.25;4.40;;;;;;;0.04;100.00;100936.06;6031864;28;20022;-73
2023/12/04 08:51:01;;;;;;;13.37;4.47;;;;;;;0.04;100.00;100946.47;6041727;28;20034;-75
2023/12/04 08:53:57;;;;;;;9.27;4.53;;;;;;;-0.07;100.00;100934.81;6040461;28;20026;-73
2023/12/04 08:56:52;;;;;;;12.20;4.87;;;;;;;-0.06;100.00;100925.25;6035530;28;20683;-73
2023/12/04 08:59:47;;;;;;;12.07;4.87;;;;;;;-0.17;100.00;100923.16;6041091;28;20045;-74
2023/12/04 09:02:42;;;;;;;11.70;4.43;;;;;;;-0.29;100.00;100934.16;6032262;28;20109;-73
2023/12/04 09:05:38;;;;;;;13.27;4.60;;;;;;;-0.29;100.00;100930.69;6033572;28;20042;-73
2023/12/04 09:08:34;;;;;;;13.13;5.82;;;;;;;-0.38;100.00;100926.75;6035459;28;20478;-74
2023/12/04 09:11:29;;;;;;;15.45;6.68;;;;;;;-0.35;100.00;100924.00;6038279;28;20050;-74
2023/12/04 09:14:27;;;;;;;14.83;5.70;;;;;;;-0.32;100.00;100910.00;6022549;28;20112;-73
2023/12/04 09:17:23;;;;;;;11.88;5.13;;;;;;;-0.24;100.00;100910.47;6042063;28;20555;-73
2023/12/04 09:20:18;;;;;;;14.43;5.80;;;;;;;-0.23;100.00;100905.19;6038400;28;20030;-76
2023/12/04 09:23:13;;;;;;;13.07;4.77;;;;;;;-0.29;100.00;100900.28;6034844;28;20462;-74
2023/12/04 09:26:08;;;;;;;25.87;7.97;;;;;;;-0.24;100.00;100900.91;6036737;28;20038;-74
2023/12/04 09:29:04;;;;;;;28.03;8.53;;;;;;;-0.12;100.00;100900.31;6024626;28;20681;-75
2023/12/04 09:31:59;;;;;;;12.07;4.97;;;;;;;-0.15;100.00;100910.03;6036793;28;20031;-76
2023/12/04 09:34:55;;;;;;;14.27;4.57;;;;;;;0.08;100.00;100901.97;6031890;28;20037;-74
2023/12/04 09:37:50;;;;;;;13.60;4.33;;;;;;;-0.03;100.00;100899.84;6031772;28;20042;-74
2023/12/04 09:40:46;;;;;;;12.63;5.43;;;;;;;-0.06;100.00;100884.41;6041978;28;20030;-74
2023/12/04 09:43:41;;;;;;;17.55;5.15;;;;;;;0.11;100.00;100898.38;6040325;28;20030;-74
2023/12/04 09:46:37;;;;;;;16.45;6.15;;;;;;;0.04;100.00;100889.13;6038729;28;20045;-74
2023/12/04 09:49:33;;;;;;;19.25;6.20;;;;;;;0.18;100.00;100897.13;6035048;28;20537;-74
2023/12/04 09:52:28;;;;;;;17.80;5.07;;;;;;;0.06;100.00;100882.94;6041416;28;20033;-74
2023/12/04 09:55:23;;;;;;;12.00;5.40;;;;;;;-0.08;100.00;100880.16;6033414;28;20293;-76
2023/12/04 09:58:21;;;;;;;14.95;5.38;;;;;;;-0.22;100.00;100873.00;6040301;28;20082;-73
2023/12/04 10:01:16;;;;;;;12.00;4.88;;;;;;;0.09;100.00;100863.69;6037795;28;20054;-75
2023/12/04 10:04:12;;;;;;;16.13;5.20;;;;;;;0.39;100.00;100869.97;6036087;28;20081;-75
2023/12/04 10:07:08;;;;;;;12.48;4.07;;;;;;;0.70;100.00;100853.59;6040436;28;20339;-73
2023/12/04 10:10:07;;;;;;;8.90;4.30;;;;;;;0.58;100.00;100860.28;6034780;28;20034;-74
2023/12/04 10:13:03;;;;;;;8.68;4.15;;;;;;;0.29;100.00;100845.28;6030328;28;20100;-73
2023/12/04 10:15:58;;;;;;;11.77;4.47;;;;;;;0.48;100.00;100838.22;6032914;28;20034;-75
2023/12/04 10:18:53;;;;;;;11.33;4.23;;;;;;;0.85;100.00;100839.72;6039450;28;20037;-75
2023/12/04 10:21:50;;;;;;;9.60;4.60;;;;;;;0.98;100.00;100831.16;6033700;28;20044;-74
2023/12/04 10:24:45;;;;;;;12.32;5.50;;;;;;;0.70;100.00;100822.28;6032087;28;20597;-75
2023/12/04 10:27:41;;;;;;;12.20;5.23;;;;;;;0.58;100.00;100828.97;6036493;28;20034;-77
2023/12/04 10:30:36;;;;;;;10.27;3.77;;;;;;;0.73;100.00;100822.13;6031201;28;20168;-74
2023/12/04 10:33:32;;;;;;;15.77;5.90;;;;;;;0.75;100.00;100820.28;6042424;28;20304;-73
2023/12/04 10:36:28;;;;;;;18.35;7.40;;;;;;;0.58;100.00;100815.94;6039467;28;20051;-74
2023/12/04 10:39:23;;;;;;;14.38;5.10;;;;;;;0.64;100.00;100805.19;6029861;28;20113;-77
2023/12/04 10:42:32;;;;;;;11.55;5.55;;;;;;;0.63;100.00;100805.25;6042944;28;20026;-74
2023/12/04 10:45:27;;;;;;;21.33;7.07;;;;;;;0.42;100.00;100799.41;6035275;28;20042;-73
2023/12/04 10:48:23;;;;;;;19.93;7.17;;;;;;;0.44;100.00;100794.94;6024406;28;20069;-75
2023/12/04 10:51:19;;;;;;;29.17;9.48;;;;;;;0.48;100.00;100796.47;6037205;28;20027;-73
2023/12/04 10:54:14;;;;;;;29.00;9.55;;;;;;;0.49;100.00;100803.41;6033050;28;20041;-78
2023/12/04 10:57:10;;;;;;;16.63;6.00;;;;;;;0.34;100.00;100793.75;6033136;28;20034;-75
2023/12/04 11:00:08;;;;;;;29.83;9.10;;;;;;;0.30;100.00;100787.03;6020804;28;20027;-77
2023/12/04 11:03:12;;;;;;;23.98;8.35;;;;;;;0.30;100.00;100790.44;6032108;28;20041;-76
2023/12/04 11:06:10;;;;;;;20.90;7.68;;;;;;;0.34;100.00;100791.13;6037676;28;20031;-75
2023/12/04 11:09:05;;;;;;;13.75;5.80;;;;;;;0.38;100.00;100774.41;6035646;28;20045;-77
2023/12/04 11:12:04;;;;;;;14.82;5.63;;;;;;;0.48;100.00;100773.84;6023572;28;20026;-75
2023/12/04 11:15:02;;;;;;;15.25;5.78;;;;;;;0.51;100.00;100772.84;6035462;28;20026;-74
2023/12/04 11:18:01;;;;;;;11.13;5.05;;;;;;;0.66;100.00;100773.78;6035722;28;20030;-75
2023/12/04 11:21:06;;;;;;;14.85;5.65;;;;;;;0.54;100.00;100764.88;6031580;28;20033;-76
2023/12/04 11:24:02;;;;;;;18.90;7.53;;;;;;;0.36;100.00;100768.41;6033012;28;20023;-78
2023/12/04 11:26:57;;;;;;;20.77;6.82;;;;;;;0.38;100.00;100759.59;6035301;28;20045;-76
2023/12/04 11:29:53;;;;;;;15.00;6.32;;;;;;;0.42;100.00;100765.50;6034138;28;20488;-75
2023/12/04 11:32:49;;;;;;;13.40;6.53;;;;;;;0.29;100.00;100751.44;6038206;28;20426;-75
2023/12/04 11:35:44;;;;;;;14.32;5.10;;;;;;;0.24;100.00;100745.63;6023559;28;20153;-80
2023/12/04 11:38:45;;;;;;;11.98;5.22;;;;;;;0.46;100.00;100754.00;6031767;28;20034;-74
2023/12/04 11:41:42;;;;;;;14.57;5.53;;;;;;;0.32;100.00;100753.88;6037852;28;20488;-75
2023/12/04 11:44:41;;;;;;;13.98;5.68;;;;;;;0.32;100.00;100746.91;6038029;28;21292;-79
2023/12/04 11:47:52;;;;;;;15.45;5.65;;;;;;;0.43;100.00;100738.50;6037002;28;20505;-76
2023/12/04 11:50:47;;;;;;;17.70;6.07;;;;;;;0.39;100.00;100726.53;6028257;28;20046;-73
2023/12/04 11:53:44;;;;;;;19.20;7.15;;;;;;;0.48;100.00;100723.44;6035225;28;20042;-78
2023/12/04 11:56:39;;;;;;;13.48;6.15;;;;;;;0.43;100.00;100704.59;6036999;28;20177;-77
2023/12/04 11:59:37;;;;;;;12.45;5.00;;;;;;;0.50;100.00;100706.78;6028309;28;20038;-74
2023/12/04 12:02:32;;;;;;;11.45;4.68;;;;;;;0.73;100.00;100705.56;6035876;28;20034;-75
2023/12/04 12:05:28;;;;;;;15.13;5.82;;;;;;;0.63;100.00;100712.19;6041722;28;20052;-74
2023/12/04 12:08:24;;;;;;;13.50;5.07;;;;;;;0.67;100.00;100699.81;6031945;28;20066;-76
2023/12/04 12:11:19;;;;;;;14.40;5.55;;;;;;;0.54;100.00;100689.22;6026372;28;20050;-78
2023/12/04 12:14:15;;;;;;;11.07;4.80;;;;;;;0.55;100.00;100688.28;6037610;28;20504;-73
2023/12/04 12:17:10;;;;;;;12.27;4.83;;;;;;;0.52;100.00;100683.22;6039098;28;20033;-73
2023/12/04 12:20:09;;;;;;;14.13;4.83;;;;;;;0.52;100.00;100678.84;6036079;28;20703;-73
2023/12/04 12:23:05;;;;;;;12.30;4.50;;;;;;;0.61;100.00;100682.72;6041559;28;20026;-73
2023/12/04 12:26:00;;;;;;;11.70;5.37;;;;;;;0.54;100.00;100677.00;6035469;28;20025;-74
2023/12/04 12:28:55;;;;;;;12.43;4.63;;;;;;;0.58;100.00;100677.69;6039199;28;20018;-75
2023/12/04 12:31:51;;;;;;;10.07;4.40;;;;;;;0.61;100.00;100677.50;6038436;28;20764;-72
2023/12/04 12:34:46;;;;;;;10.70;3.53;;;;;;;0.72;100.00;100664.72;6035566;28;20372;-70
2023/12/04 12:37:41;;;;;;;9.20;4.40;;;;;;;0.85;100.00;100664.88;6018616;28;20046;-71
2023/12/04 12:40:37;;;;;;;9.23;4.07;;;;;;;0.58;100.00;100646.38;6039990;28;20441;-72
2023/12/04 12:43:33;;;;;;;9.93;4.30;;;;;;;0.50;100.00;100643.34;6035526;28;20269;-71
2023/12/04 12:46:29;;;;;;;9.27;4.75;;;;;;;0.47;100.00;100643.50;6028522;28;20045;-69
2023/12/04 12:49:24;;;;;;;13.73;5.00;;;;;;;0.40;100.00;100636.97;6036417;28;20045;-70
2023/12/04 12:52:19;;;;;;;12.77;4.80;;;;;;;0.34;100.00;100635.53;6031770;28;20396;-70
2023/12/04 12:55:23;;;;;;;9.90;4.47;;;;;;;0.34;100.00;100629.47;6036143;28;20058;-72
2023/12/04 12:58:20;;;;;;;17.25;4.82;;;;;;;0.34;100.00;100626.84;6040355;28;20289;-71
2023/12/04 13:01:15;;;;;;;9.70;4.57;;;;;;;0.20;100.00;100621.53;6035907;28;20429;-70
2023/12/04 13:04:15;;;;;;;10.93;4.37;;;;;;;0.25;100.00;100611.69;6036567;28;20112;-71
2023/12/04 13:07:11;;;;;;;10.88;4.50;;;;;;;0.32;100.00;100616.53;6038069;28;20022;-71
2023/12/04 13:10:08;;;;;;;7.90;3.95;;;;;;;0.32;100.00;100608.69;6032102;28;20117;-69
2023/12/04 13:13:04;;;;;;;11.85;3.85;;;;;;;0.26;100.00;100597.75;6026066;28;20055;-72
2023/12/04 13:15:59;;;;;;;8.63;3.60;;;;;;;0.23;100.00;100609.19;6035087;28;20070;-71
2023/12/04 13:18:54;;;;;;;14.27;4.53;;;;;;;0.16;100.00;100599.19;6036540;28;20044;-71
2023/12/04 13:21:50;;;;;;;12.17;4.43;;;;;;;0.17;100.00;100606.91;6033133;28;20550;-70